Time;durP1;ratioP1;P1;durP2;ratioP2;P2;SDS_P1;SDS_P2;PMS_P1;PMS_P2;Temp;Humidity;BMP_temperature;BMP_pressure;BME280_temperature;BME280_humidity;BME280_pressure;Samples;Min_cycle;Max_cycle;Signal;HPM_P1;HPM_P2
2022/02/04 00:23:05;;;;;;;11.70;7.13;;;;;;;12.33;51.68;100927.00;5013727;28;20084;-87
2022/02/04 00:28:15;;;;;;;10.85;6.82;;;;;;;12.29;51.94;100920.03;5012744;28;20046;-87
2022/02/04 00:30:48;;;;;;;9.25;6.82;;;;;;;12.29;51.79;100926.34;5010164;28;20124;-87
2022/02/04 00:33:16;;;;;;;10.50;6.83;;;;;;;12.25;51.57;100924.84;5011867;28;20057;-87
2022/02/04 00:40:41;;;;;;;9.88;6.60;;;;;;;12.28;51.62;100932.75;5011776;28;20418;-88
2022/02/04 00:43:11;;;;;;;8.18;5.93;;;;;;;12.27;51.59;100936.47;5010391;28;20058;-87
2022/02/04 00:45:49;;;;;;;10.30;6.78;;;;;;;12.27;51.57;100936.47;5010052;28;20108;-88
2022/02/04 00:48:50;;;;;;;10.02;6.43;;;;;;;12.26;51.71;100931.16;5018290;28;20165;-88
2022/02/04 01:26:48;;;;;;;10.75;6.35;;;;;;;12.17;51.87;100905.47;4991637;28;20057;-87
2022/02/04 01:29:15;;;;;;;9.40;6.38;;;;;;;12.18;51.88;100908.09;4989354;28;20472;-86
2022/02/04 01:31:42;;;;;;;9.07;6.00;;;;;;;12.19;52.07;100909.78;4992353;28;20351;-87
2022/02/04 01:34:09;;;;;;;9.07;5.72;;;;;;;12.19;52.12;100907.06;4990233;28;20410;-87
2022/02/04 01:36:36;;;;;;;8.98;5.93;;;;;;;12.22;51.82;100916.00;5009221;28;20092;-87
2022/02/04 01:39:04;;;;;;;9.60;6.30;;;;;;;12.23;51.71;100921.34;5006622;28;20472;-87
2022/02/04 01:41:30;;;;;;;8.60;6.00;;;;;;;12.23;51.75;100910.47;4992700;28;20057;-87
2022/02/04 01:43:57;;;;;;;9.15;5.93;;;;;;;12.24;51.67;100906.75;4990523;28;20085;-86
2022/02/04 01:46:25;;;;;;;9.65;6.55;;;;;;;12.24;51.80;100914.94;5006901;28;20042;-87
2022/02/04 01:48:52;;;;;;;8.35;5.45;;;;;;;12.25;51.62;100902.19;5008980;28;20054;-87
2022/02/04 01:51:18;;;;;;;9.77;5.43;;;;;;;12.25;52.04;100899.47;5009274;28;20085;-87
2022/02/04 01:53:45;;;;;;;8.63;5.35;;;;;;;12.27;51.80;100901.06;5009542;28;20049;-87
2022/02/04 01:56:13;;;;;;;8.70;5.57;;;;;;;12.29;51.72;100901.84;5008930;28;20460;-87
2022/02/04 01:58:41;;;;;;;8.90;5.15;;;;;;;12.28;51.94;100894.66;5002687;28;20502;-87
2022/02/04 02:01:08;;;;;;;7.22;4.95;;;;;;;12.30;51.92;100897.25;5007863;28;20050;-86
2022/02/04 02:03:35;;;;;;;7.78;5.20;;;;;;;12.29;51.64;100888.22;5010149;28;20046;-87
2022/02/04 02:06:08;;;;;;;8.70;5.13;;;;;;;12.29;51.72;100881.91;5007937;28;20057;-87
2022/02/04 02:08:35;;;;;;;7.70;4.63;;;;;;;12.29;51.81;100887.34;5007571;28;20489;-86
2022/02/04 02:11:02;;;;;;;7.68;4.35;;;;;;;12.31;51.55;100877.22;5005420;28;20057;-87
2022/02/04 02:13:44;;;;;;;7.30;4.40;;;;;;;12.31;51.64;100875.38;5005798;28;20104;-87
2022/02/04 02:35:56;;;;;;;6.28;4.05;;;;;;;12.27;51.68;100851.22;5008674;28;20056;-87
2022/02/04 02:39:24;;;;;;;7.28;4.30;;;;;;;12.27;51.75;100853.94;5008946;28;20042;-87
2022/02/04 02:59:43;;;;;;;6.35;3.65;;;;;;;12.26;51.57;100866.69;4972864;28;20092;-87
2022/02/04 03:02:10;;;;;;;6.93;4.15;;;;;;;12.26;51.40;100855.81;5007805;28;20050;-87
2022/02/04 03:04:36;;;;;;;7.43;4.20;;;;;;;12.27;51.51;100862.13;4994271;28;20084;-86
2022/02/04 03:07:03;;;;;;;6.88;3.63;;;;;;;12.28;51.51;100858.38;5013906;28;20050;-87
2022/02/04 03:09:30;;;;;;;5.18;3.63;;;;;;;12.28;51.21;100866.56;5007445;28;20144;-86
2022/02/04 03:11:57;;;;;;;6.35;4.03;;;;;;;12.28;51.60;100867.44;5008785;28;20132;-86
2022/02/04 03:14:24;;;;;;;6.40;3.95;;;;;;;12.30;51.52;100861.88;5006734;28;20085;-86
2022/02/04 03:16:51;;;;;;;5.93;3.97;;;;;;;12.29;51.34;100857.41;5007218;28;20124;-87
2022/02/04 03:19:18;;;;;;;7.00;4.32;;;;;;;12.29;51.39;100860.13;5006736;28;20537;-86
2022/02/04 03:21:47;;;;;;;7.63;4.38;;;;;;;12.29;51.65;100846.53;5010321;28;20501;-86
2022/02/04 03:24:18;;;;;;;5.47;3.65;;;;;;;12.29;51.22;100844.66;5010700;28;20046;-86
2022/02/04 03:26:52;;;;;;;6.05;3.80;;;;;;;12.30;51.40;100845.53;5018754;28;20079;-86
2022/02/04 03:29:26;;;;;;;6.90;4.05;;;;;;;12.30;51.13;100840.97;5010922;28;20144;-86
2022/02/04 03:31:59;;;;;;;6.15;4.22;;;;;;;12.30;51.32;100843.69;5012421;28;20050;-86
2022/02/04 03:34:26;;;;;;;;;;;;;;;12.10;51.66;100836.13;5011662;28;20077;-86
2022/02/04 03:36:52;;;;;;;5.97;3.53;;;;;;;12.27;51.63;100824.00;5011956;28;20028;-86
2022/02/04 03:39:19;;;;;;;6.30;4.03;;;;;;;12.30;51.55;100818.31;5010313;28;20085;-86
2022/02/04 03:41:46;;;;;;;6.72;3.95;;;;;;;12.30;51.28;100818.31;5001478;28;20613;-86
2022/02/04 03:44:12;;;;;;;5.60;3.75;;;;;;;12.31;51.68;100818.22;5006949;28;20077;-86
2022/02/04 03:46:39;;;;;;;6.60;4.03;;;;;;;12.33;51.43;100816.25;5008492;28;20139;-86
2022/02/04 03:49:06;;;;;;;5.63;3.67;;;;;;;12.33;50.96;100810.81;5002654;28;20081;-86
2022/02/04 03:51:32;;;;;;;5.97;3.97;;;;;;;12.33;51.21;100804.50;5009492;28;20150;-86
2022/02/04 03:53:59;;;;;;;6.32;3.97;;;;;;;12.34;51.27;100817.13;5011155;28;20049;-86
2022/02/04 03:56:26;;;;;;;6.88;4.28;;;;;;;12.33;51.07;100810.81;5011823;28;20552;-85
2022/02/04 03:58:52;;;;;;;7.00;4.43;;;;;;;12.33;51.34;100808.09;5019871;28;20054;-86
2022/02/04 04:01:19;;;;;;;7.65;4.25;;;;;;;12.33;51.02;100808.09;5009979;28;20089;-86
2022/02/04 04:03:47;;;;;;;7.95;4.28;;;;;;;12.34;51.29;100814.41;5011374;28;20513;-87
2022/02/04 04:06:16;;;;;;;5.43;3.70;;;;;;;12.35;50.96;100814.28;5015077;28;20084;-86
2022/02/04 04:08:43;;;;;;;6.55;4.25;;;;;;;12.33;51.37;100810.81;5015172;28;20131;-86
2022/02/04 04:11:13;;;;;;;6.70;3.63;;;;;;;12.34;51.39;100807.09;5010858;28;20103;-85
2022/02/04 04:13:40;;;;;;;6.65;3.83;;;;;;;12.33;51.30;100805.34;5010235;28;20058;-86
2022/02/04 04:16:07;;;;;;;7.07;4.15;;;;;;;12.35;50.96;100802.53;5010752;28;20347;-86
2022/02/04 04:18:33;;;;;;;6.43;3.75;;;;;;;12.35;51.51;100813.41;5011521;28;20629;-86
2022/02/04 04:21:01;;;;;;;5.68;3.60;;;;;;;12.34;51.18;100812.53;5010758;28;20069;-86
2022/02/04 04:23:28;;;;;;;5.18;3.40;;;;;;;12.35;51.25;100810.69;5011398;28;20471;-86
2022/02/04 04:25:55;;;;;;;6.53;4.05;;;;;;;12.35;51.11;100814.28;5009023;28;20080;-86
2022/02/04 04:28:22;;;;;;;6.07;3.72;;;;;;;12.36;50.97;100821.44;5011790;28;20335;-86
2022/02/04 04:30:48;;;;;;;6.03;3.80;;;;;;;12.36;50.79;100823.28;5010609;28;20054;-86
2022/02/04 04:33:15;;;;;;;5.90;3.75;;;;;;;12.36;50.80;100817.84;5015601;28;20073;-86
2022/02/04 04:35:42;;;;;;;6.35;3.65;;;;;;;12.36;50.97;100826.03;5012865;28;20057;-86
2022/02/04 05:30:10;;;;;;;5.28;2.90;;;;;;;12.31;50.98;100782.81;4984906;28;20129;-85
2022/02/04 05:32:36;;;;;;;4.95;3.03;;;;;;;12.30;50.68;100780.19;4995422;28;20046;-85
2022/02/04 05:35:07;;;;;;;5.65;2.90;;;;;;;12.33;50.75;100782.72;5002499;28;20077;-86
2022/02/04 05:37:39;;;;;;;4.38;2.78;;;;;;;12.34;50.52;100785.31;5010953;28;20568;-85
2022/02/04 05:40:10;;;;;;;4.22;2.47;;;;;;;12.33;50.75;100794.47;5008310;28;20458;-87
2022/02/04 05:42:42;;;;;;;5.22;2.67;;;;;;;12.34;50.72;100801.66;5008144;28;20050;-85
2022/02/04 05:45:18;;;;;;;6.60;3.42;;;;;;;12.33;50.76;100799.91;5004070;28;20084;-87
2022/02/04 05:47:53;;;;;;;5.00;2.88;;;;;;;12.35;50.52;100795.22;5003869;28;20039;-89
2022/02/04 05:53:17;;;;;;;4.65;2.45;;;;;;;12.36;50.22;100794.22;5011556;28;20631;-91
2022/02/04 05:56:00;;;;;;;4.97;2.63;;;;;;;12.34;50.66;100790.75;5013388;28;20133;-89
2022/02/04 06:09:46;;;;;;;3.80;2.45;;;;;;;12.33;50.70;100788.16;5018205;28;20528;-88
2022/02/04 06:23:17;;;;;;;4.53;2.70;;;;;;;12.33;50.40;100775.41;5013184;28;20088;-88
2022/02/04 06:25:47;;;;;;;5.57;2.60;;;;;;;12.36;50.40;100777.00;5007154;28;20088;-87
2022/02/04 06:28:17;;;;;;;4.10;2.38;;;;;;;12.36;50.47;100768.84;5016772;28;20080;-89
2022/02/04 06:30:47;;;;;;;4.70;2.75;;;;;;;12.36;50.09;100769.72;5007185;28;20218;-87
2022/02/04 06:33:14;;;;;;;4.72;2.83;;;;;;;12.37;50.71;100767.88;5013789;28;20444;-88
2022/02/04 06:35:48;;;;;;;4.05;2.60;;;;;;;12.35;50.59;100765.28;5017795;28;20420;-88
2022/02/04 06:38:15;;;;;;;4.85;2.72;;;;;;;12.36;50.39;100760.69;5012524;28;20475;-89
2022/02/04 06:40:42;;;;;;;4.18;2.55;;;;;;;12.37;50.24;100774.19;5010314;28;20103;-88
2022/02/04 06:43:09;;;;;;;5.07;2.50;;;;;;;12.38;50.22;100772.31;5021609;28;20144;-87
2022/02/04 06:45:37;;;;;;;3.97;2.45;;;;;;;12.38;50.48;100765.03;5017129;28;20053;-88
2022/02/04 06:48:04;;;;;;;4.03;2.53;;;;;;;12.37;50.42;100767.88;5009341;28;20177;-87
2022/02/04 06:50:31;;;;;;;4.20;2.50;;;;;;;12.38;50.35;100770.47;5011023;28;20042;-87
2022/02/04 06:52:57;;;;;;;4.22;2.47;;;;;;;12.39;50.07;100774.06;5011902;28;20050;-88
2022/02/04 06:55:24;;;;;;;4.00;2.42;;;;;;;12.39;50.34;100774.94;5015698;28;20186;-88
2022/02/04 06:57:53;;;;;;;4.05;2.35;;;;;;;12.37;50.42;100779.63;5011578;28;20140;-89
2022/02/04 07:00:26;;;;;;;4.15;2.28;;;;;;;12.40;50.01;100781.25;5010548;28;20141;-90
2022/02/04 07:02:54;;;;;;;;;;;;;;;12.16;50.74;100784.84;5007037;28;20054;-85
2022/02/04 07:05:22;;;;;;;3.60;2.10;;;;;;;12.34;50.39;100787.19;5001784;28;20329;-85
2022/02/04 07:08:11;;;;;;;4.13;2.00;;;;;;;12.37;50.60;100801.41;5005326;28;20147;-84
2022/02/04 07:10:56;;;;;;;3.80;1.75;;;;;;;12.35;50.39;100802.53;5003781;28;20052;-85
2022/02/04 07:13:37;;;;;;;3.35;1.98;;;;;;;12.35;50.61;100797.94;5007027;28;20049;-83
2022/02/04 07:21:19;;;;;;;4.10;2.00;;;;;;;12.38;50.51;100802.28;4999106;28;20481;-85
2022/02/04 07:23:46;;;;;;;4.43;2.40;;;;;;;12.37;50.99;100805.97;5008473;28;20057;-86
2022/02/04 07:26:12;;;;;;;4.25;2.20;;;;;;;12.36;50.58;100807.84;5006078;28;20133;-87
2022/02/04 07:28:39;;;;;;;4.50;2.42;;;;;;;12.36;50.68;100810.56;5008537;28;20290;-88
2022/02/04 07:31:06;;;;;;;4.57;2.60;;;;;;;12.36;50.60;100804.22;4990297;28;20057;-86
2022/02/04 07:33:41;;;;;;;5.07;2.50;;;;;;;12.36;50.87;100802.38;5009182;28;20140;-87
2022/02/04 07:40:53;;;;;;;4.90;2.50;;;;;;;12.34;51.08;100788.03;5009056;28;20046;-84
2022/02/04 07:41:38;;;;;;;4.30;2.38;;;;;;;12.32;50.83;100779.13;5008901;28;20141;-84
2022/02/04 07:44:05;;;;;;;4.50;2.55;;;;;;;12.34;51.33;100782.59;5008394;28;21430;-85
2022/02/04 07:46:32;;;;;;;4.65;2.63;;;;;;;12.34;51.10;100773.56;4988218;28;20062;-86
2022/02/04 07:48:58;;;;;;;5.03;2.72;;;;;;;12.36;51.11;100783.31;4988229;28;20074;-86
2022/02/04 07:51:27;;;;;;;5.22;2.70;;;;;;;12.37;51.38;100771.44;5003042;28;20376;-85
2022/02/04 07:53:56;;;;;;;6.13;3.10;;;;;;;12.37;51.29;100768.72;5007443;28;20092;-84
2022/02/04 07:56:28;;;;;;;4.68;2.88;;;;;;;12.39;51.30;100763.19;5007401;28;20108;-85
2022/02/04 07:59:00;;;;;;;4.65;3.17;;;;;;;12.37;51.49;100770.59;5008239;28;20046;-86
2022/02/04 08:01:30;;;;;;;5.28;3.10;;;;;;;12.37;51.43;100760.56;5006347;28;20073;-85
2022/02/04 08:06:42;;;;;;;4.55;2.50;;;;;;;12.38;51.55;100765.03;5009534;28;20042;-88
2022/02/04 08:17:21;;;;;;;6.15;3.00;;;;;;;12.40;51.44;100741.28;5009316;28;20100;-87
2022/02/04 08:30:26;;;;;;;4.10;2.30;;;;;;;12.47;51.36;100737.09;5009808;28;20501;-85
2022/02/04 08:33:19;;;;;;;4.15;2.08;;;;;;;12.48;51.21;100732.53;5007966;28;20046;-85
2022/02/04 08:38:59;;;;;;;3.95;2.13;;;;;;;12.50;51.48;100739.59;5008666;28;20054;-87
2022/02/04 08:49:32;;;;;;;3.92;2.00;;;;;;;12.54;51.68;100732.03;4986220;28;20065;-86
2022/02/04 08:54:55;;;;;;;4.95;2.20;;;;;;;12.58;51.12;100733.56;5011797;28;20046;-86
2022/02/04 08:57:36;;;;;;;5.13;2.10;;;;;;;12.58;51.40;100726.25;4996327;28;20092;-87
2022/02/04 09:05:04;;;;;;;4.47;2.72;;;;;;;12.63;51.02;100714.13;5012025;28;20508;-84
2022/02/04 09:07:48;;;;;;;5.40;2.72;;;;;;;12.62;50.84;100715.13;5008888;28;20323;-84
2022/02/04 09:10:19;;;;;;;4.15;2.70;;;;;;;12.63;51.24;100712.28;5003512;28;20057;-85
2022/02/04 09:18:41;;;;;;;3.45;2.05;;;;;;;12.64;51.03;100707.69;4930884;29;20106;-85
2022/02/04 09:21:14;;;;;;;3.58;2.03;;;;;;;12.65;51.21;100695.81;4953015;28;20047;-83
2022/02/04 09:23:43;;;;;;;3.95;2.38;;;;;;;12.69;51.21;100702.75;4953607;28;20476;-84
2022/02/04 09:26:10;;;;;;;3.65;2.10;;;;;;;12.70;50.92;100690.88;4948093;28;20144;-85
2022/02/04 09:28:37;;;;;;;4.47;2.10;;;;;;;12.72;51.46;100691.63;4967276;28;20102;-85
2022/02/04 09:31:04;;;;;;;4.38;2.38;;;;;;;12.74;51.24;100685.06;4956790;28;20059;-90
2022/02/04 09:33:30;;;;;;;3.97;2.33;;;;;;;12.76;51.22;100685.84;4963182;28;20047;-89
2022/02/04 09:35:57;;;;;;;3.90;2.22;;;;;;;12.77;51.17;100684.81;4967919;28;20054;-87
2022/02/04 09:38:26;;;;;;;5.28;2.72;;;;;;;12.81;51.25;100682.72;4969957;28;20568;-89
2022/02/04 09:40:53;;;;;;;4.60;2.78;;;;;;;12.80;51.08;100678.28;4967750;28;20141;-87
2022/02/04 09:43:22;;;;;;;4.22;2.25;;;;;;;12.82;51.23;100673.56;4958921;28;20078;-87
2022/02/04 09:45:49;;;;;;;4.53;2.85;;;;;;;12.84;51.40;100671.59;4967922;28;20443;-90
2022/02/04 09:48:16;;;;;;;4.97;3.03;;;;;;;12.86;51.39;100675.06;4953894;28;20055;-88
2022/02/04 09:50:47;;;;;;;4.70;2.50;;;;;;;12.85;50.95;100668.72;4968857;28;20074;-90
2022/02/04 10:09:44;;;;;;;3.60;2.00;;;;;;;12.85;51.31;100679.63;5010571;28;20049;-89
2022/02/04 10:15:23;;;;;;;3.75;1.90;;;;;;;12.87;50.93;100666.75;5010049;28;20050;-87
2022/02/04 10:18:14;;;;;;;3.90;2.35;;;;;;;12.84;51.30;100661.56;5009590;28;20153;-88
2022/02/04 10:20:44;;;;;;;3.95;2.08;;;;;;;12.86;51.29;100655.97;5007678;28;20054;-88
2022/02/04 10:23:11;;;;;;;3.13;1.80;;;;;;;12.85;51.35;100657.84;5011629;28;20116;-89
2022/02/04 10:25:42;;;;;;;3.63;1.90;;;;;;;12.89;51.07;100650.28;5008204;28;20100;-88
2022/02/04 10:28:28;;;;;;;3.33;1.58;;;;;;;12.89;51.43;100642.13;5006447;28;20061;-89
2022/02/04 10:31:14;;;;;;;3.33;1.55;;;;;;;12.86;51.64;100640.50;5006304;28;20053;-89
2022/02/04 10:33:55;;;;;;;4.22;2.47;;;;;;;12.89;51.27;100631.22;5008601;28;20104;-88
2022/02/04 10:36:36;;;;;;;2.65;1.50;;;;;;;12.88;51.14;100630.34;5006200;28;20425;-86
2022/02/04 10:39:30;;;;;;;3.53;1.60;;;;;;;12.87;51.36;100625.03;4997902;28;20100;-87
2022/02/04 10:42:23;;;;;;;2.88;1.60;;;;;;;12.88;51.35;100616.72;5003585;28;20050;-86
2022/02/04 10:59:12;;;;;;;1.95;1.20;;;;;;;12.85;51.83;100594.28;5005391;28;20068;-82
2022/02/04 11:02:10;;;;;;;2.17;1.20;;;;;;;12.85;51.47;100600.63;4984750;28;20109;-82
2022/02/04 11:04:36;;;;;;;2.75;1.40;;;;;;;12.86;51.63;100594.19;4960313;28;20070;-83
2022/02/04 11:43:49;;;;;;;1.65;0.98;;;;;;;12.95;50.71;100541.66;5012756;28;20053;-81
2022/02/04 11:55:22;;;;;;;1.42;0.98;;;;;;;12.98;49.46;100517.88;5007628;28;20045;-83
2022/02/04 11:58:03;;;;;;;1.60;0.90;;;;;;;13.01;49.57;100506.75;5004338;28;20050;-82
2022/02/04 12:00:40;;;;;;;1.88;0.80;;;;;;;13.00;49.20;100481.34;5000084;28;20444;-83
2022/02/04 12:03:29;;;;;;;1.25;0.77;;;;;;;12.99;49.25;100476.03;5011178;28;20057;-83
2022/02/04 12:05:56;;;;;;;1.58;0.75;;;;;;;12.96;50.14;100463.50;4988049;28;20061;-81
2022/02/04 12:08:24;;;;;;;1.45;0.80;;;;;;;13.00;49.60;100466.84;4986563;28;20042;-81
2022/02/04 12:10:56;;;;;;;1.40;0.90;;;;;;;13.01;49.19;100460.41;4987651;28;20054;-82
2022/02/04 12:13:25;;;;;;;2.47;0.90;;;;;;;13.01;49.38;100458.56;4988673;28;20133;-82
2022/02/04 12:16:06;;;;;;;2.92;1.00;;;;;;;13.04;49.03;100460.16;4988630;28;20065;-83
2022/02/04 12:18:48;;;;;;;2.05;1.13;;;;;;;13.02;48.99;100454.81;4992144;28;20141;-84
2022/02/04 12:21:20;;;;;;;1.85;1.10;;;;;;;13.03;49.12;100451.09;4992180;28;20069;-82
2022/02/04 12:23:49;;;;;;;2.00;1.00;;;;;;;13.00;49.02;100443.19;4980486;28;20557;-84
2022/02/04 12:26:28;;;;;;;1.85;1.05;;;;;;;12.99;49.30;100437.88;4996385;28;20058;-81
2022/02/04 12:29:09;;;;;;;2.65;1.30;;;;;;;13.01;48.58;100425.00;4994366;28;20470;-83
2022/02/04 12:31:39;;;;;;;2.65;1.20;;;;;;;13.01;49.08;100420.41;5010560;28;20050;-82
2022/02/04 12:34:11;;;;;;;2.42;1.20;;;;;;;13.00;48.96;100428.72;5009101;28;20056;-81
2022/02/04 12:36:44;;;;;;;2.33;1.17;;;;;;;13.00;49.06;100404.19;5013340;28;20050;-81
2022/02/04 12:39:12;;;;;;;2.40;1.10;;;;;;;13.02;48.77;100419.38;5007372;28;20073;-81
2022/02/04 12:41:45;;;;;;;2.13;1.20;;;;;;;13.06;48.76;100411.84;5010660;28;20082;-81
2022/02/04 12:44:13;;;;;;;3.67;1.30;;;;;;;13.02;48.46;100405.75;5008356;28;20084;-80
2022/02/04 12:46:43;;;;;;;1.92;1.10;;;;;;;13.01;49.02;100409.50;5006725;28;20061;-81
2022/02/04 12:49:12;;;;;;;1.90;1.10;;;;;;;13.03;48.80;100398.47;5008780;28;20065;-83
2022/02/04 12:54:54;;;;;;;3.25;1.55;;;;;;;13.00;48.35;100394.16;5009457;28;20139;-81
2022/02/04 13:11:09;;;;;;;2.78;1.42;;;;;;;12.99;48.37;100388.81;4998411;28;19926;-84
2022/02/04 13:13:50;;;;;;;2.83;1.52;;;;;;;13.02;48.65;100381.25;5010252;28;20058;-84
2022/02/04 13:16:31;;;;;;;2.63;1.50;;;;;;;13.05;48.18;100374.66;5006315;28;20058;-83
2022/02/04 13:19:00;;;;;;;2.92;1.77;;;;;;;13.01;48.49;100363.19;5004040;28;20112;-82
2022/02/04 13:21:27;;;;;;;3.10;1.70;;;;;;;13.04;48.49;100357.44;5009343;28;20413;-82
2022/02/04 13:24:00;;;;;;;4.00;1.80;;;;;;;13.06;48.59;100358.19;5008642;28;20409;-82
2022/02/04 13:26:29;;;;;;;3.00;1.60;;;;;;;13.05;48.63;100337.38;5008233;28;20049;-82
2022/02/04 13:28:58;;;;;;;2.92;1.75;;;;;;;13.08;48.17;100344.44;5009664;28;20095;-83
2022/02/04 13:31:25;;;;;;;3.55;1.90;;;;;;;13.09;48.31;100336.16;5007532;28;20107;-82
2022/02/04 13:33:56;;;;;;;3.55;2.00;;;;;;;13.10;48.18;100340.56;5009651;28;20548;-81
2022/02/04 13:36:40;;;;;;;3.20;1.90;;;;;;;13.14;47.99;100346.66;5013331;28;20133;-83
2022/02/04 13:47:01;;;;;;;3.30;1.67;;;;;;;13.13;48.26;100324.00;5007534;28;20499;-84
2022/02/04 14:00:41;;;;;;;2.88;1.58;;;;;;;13.15;47.99;100292.03;4939320;29;20061;-83
2022/02/04 14:03:10;;;;;;;4.00;1.90;;;;;;;13.17;47.79;100278.28;5003736;28;20148;-83
2022/02/04 14:05:46;;;;;;;3.75;2.05;;;;;;;13.20;48.04;100265.22;5009124;28;20112;-84
2022/02/04 14:08:37;;;;;;;3.60;1.90;;;;;;;13.17;48.10;100270.97;5009610;28;20057;-84
2022/02/04 14:11:07;;;;;;;4.05;1.80;;;;;;;13.18;48.33;100261.75;5007423;28;20104;-82
2022/02/04 14:14:43;;;;;;;3.90;1.80;;;;;;;13.19;47.82;100257.19;5006868;28;20075;-81
2022/02/04 14:17:10;;;;;;;4.32;1.38;;;;;;;13.16;48.45;100252.88;4998551;28;20513;-81
2022/02/04 14:19:37;;;;;;;3.28;1.55;;;;;;;13.19;47.77;100225.34;5007192;28;20136;-83
2022/02/04 14:22:05;;;;;;;2.95;1.67;;;;;;;13.22;47.83;100226.94;5008404;28;20046;-81
2022/02/04 14:24:32;;;;;;;2.63;1.35;;;;;;;13.23;47.77;100217.75;5007851;28;20112;-82
2022/02/04 14:26:59;;;;;;;2.65;1.20;;;;;;;13.23;48.28;100229.53;5006753;28;20635;-81
2022/02/04 14:29:40;;;;;;;2.67;1.40;;;;;;;13.25;48.15;100226.69;5007384;28;20528;-80
2022/02/04 14:32:48;;;;;;;2.65;1.40;;;;;;;13.24;47.78;100212.19;5015326;28;20049;-80
2022/02/04 14:35:28;;;;;;;2.78;1.15;;;;;;;13.24;48.03;100204.00;5002582;28;20137;-81
2022/02/04 15:02:27;;;;;;;3.65;1.50;;;;;;;13.30;47.34;100161.69;4996105;28;20053;-83
2022/02/04 15:04:54;;;;;;;3.13;1.23;;;;;;;13.29;47.46;100166.28;5009321;28;20532;-84
2022/02/04 15:07:30;;;;;;;3.20;1.70;;;;;;;13.28;47.50;100164.56;5002798;28;20153;-83
2022/02/04 15:09:56;;;;;;;2.22;1.10;;;;;;;13.28;47.29;100164.56;5002570;28;20053;-83
2022/02/04 15:12:24;;;;;;;3.00;1.30;;;;;;;13.30;47.29;100156.25;5005143;28;20469;-83
2022/02/04 15:14:50;;;;;;;4.85;1.80;;;;;;;13.30;47.13;100158.97;5005865;28;20108;-83
2022/02/04 15:20:41;;;;;;;3.67;1.50;;;;;;;13.27;47.33;100151.91;5013018;28;20132;-82
2022/02/04 15:23:11;;;;;;;4.10;1.65;;;;;;;13.32;47.29;100155.13;5010309;28;20136;-82
2022/02/04 15:25:38;;;;;;;2.92;1.55;;;;;;;13.32;46.87;100155.13;5013322;28;20057;-83
2022/02/04 15:30:35;;;;;;;2.50;1.40;;;;;;;13.37;46.82;100159.28;5012471;28;20444;-82
2022/02/04 15:33:02;;;;;;;3.13;1.30;;;;;;;13.37;47.08;100162.00;5014981;28;20050;-82
2022/02/04 15:35:30;;;;;;;2.33;1.10;;;;;;;13.33;47.01;100166.88;5013422;28;20131;-83
2022/02/04 15:37:57;;;;;;;3.58;1.05;;;;;;;13.32;47.45;100178.78;5015137;28;20050;-84
2022/02/04 15:40:24;;;;;;;2.47;1.10;;;;;;;13.28;47.19;100170.00;5013956;28;20086;-84
2022/02/04 15:42:59;;;;;;;2.03;1.00;;;;;;;13.29;47.68;100169.00;5008594;28;20492;-84
2022/02/04 15:48:26;;;;;;;2.75;1.20;;;;;;;13.24;48.16;100164.97;4990020;28;20107;-85
2022/02/04 15:51:38;;;;;;;2.00;1.00;;;;;;;13.25;47.90;100155.81;5024385;28;20123;-85
2022/02/04 15:54:47;;;;;;;3.75;1.40;;;;;;;13.20;47.90;100163.50;5004881;28;20046;-84
2022/02/04 15:58:11;;;;;;;1.73;1.02;;;;;;;13.19;48.02;100165.38;4962738;28;20054;-84
2022/02/04 16:06:48;;;;;;;;;;;;;;;;;;;;;
2022/02/04 16:09:22;;;;;;;2.42;1.20;;;;;;;13.06;48.52;100167.44;4961835;28;20525;-85
2022/02/04 16:12:02;;;;;;;3.13;1.30;;;;;;;13.06;48.67;100155.66;4944893;28;20046;-85
2022/02/04 16:15:09;;;;;;;2.85;1.00;;;;;;;13.02;48.70;100163.22;4951183;28;20476;-84
2022/02/04 16:17:41;;;;;;;3.53;1.00;;;;;;;12.98;48.83;100161.78;5014521;28;20142;-84
2022/02/04 16:20:25;;;;;;;1.60;1.00;;;;;;;12.98;48.84;100158.19;5027703;28;20050;-85
2022/02/04 16:23:09;;;;;;;1.20;0.93;;;;;;;12.90;49.06;100169.78;5022767;28;20053;-84
2022/02/04 16:31:18;;;;;;;2.45;1.00;;;;;;;12.88;49.36;100190.81;5005768;28;20052;-85
2022/02/04 16:33:47;;;;;;;1.70;0.90;;;;;;;12.89;49.58;100207.03;5007144;28;20081;-86
2022/02/04 16:36:45;;;;;;;1.35;0.95;;;;;;;12.84;49.66;100219.34;5001119;28;20045;-85
2022/02/04 16:39:20;;;;;;;2.05;1.10;;;;;;;12.83;49.91;100220.34;5007825;28;20041;-82
2022/02/04 16:41:58;;;;;;;2.80;1.00;;;;;;;12.82;49.89;100264.94;5024721;28;20524;-83
2022/02/04 16:44:24;;;;;;;2.10;0.93;;;;;;;12.79;50.08;100292.41;5013226;28;20053;-84
2022/02/04 16:46:51;;;;;;;1.92;0.90;;;;;;;12.78;49.65;100329.69;5011253;28;20429;-84
2022/02/04 16:49:18;;;;;;;3.08;0.88;;;;;;;12.73;49.55;100347.41;5010426;28;20050;-85
2022/02/04 16:51:52;;;;;;;1.40;0.75;;;;;;;12.67;49.35;100359.72;5011966;28;20057;-85
2022/02/04 16:54:23;;;;;;;0.70;0.70;;;;;;;12.64;49.04;100387.19;4998587;28;20473;-85
2022/02/04 16:56:51;;;;;;;0.73;0.70;;;;;;;12.56;48.81;100401.44;5015922;28;20111;-85
2022/02/04 16:59:19;;;;;;;1.13;0.80;;;;;;;12.48;48.75;100428.44;5015957;28;20050;-86
2022/02/04 17:01:46;;;;;;;0.70;0.70;;;;;;;12.41;48.64;100439.94;5010775;28;20108;-86
2022/02/04 17:04:18;;;;;;;1.48;0.88;;;;;;;12.33;48.24;100472.38;5009764;28;20288;-85
2022/02/04 17:06:48;;;;;;;1.40;0.90;;;;;;;12.21;48.55;100474.19;5007111;28;20046;-85
2022/02/04 17:12:03;;;;;;;1.10;0.90;;;;;;;12.04;48.29;100497.31;5011915;28;20132;-85
2022/02/04 17:14:31;;;;;;;1.00;0.90;;;;;;;11.95;48.29;100510.75;4996268;28;20058;-85
2022/02/04 17:16:58;;;;;;;2.05;1.00;;;;;;;11.88;48.27;100528.53;5011232;28;20057;-85
2022/02/04 17:19:29;;;;;;;1.25;0.90;;;;;;;11.80;48.37;100545.47;5009458;28;20394;-85
2022/02/04 17:22:02;;;;;;;1.10;0.90;;;;;;;11.78;48.32;100528.38;5009667;28;20477;-85
2022/02/04 17:24:31;;;;;;;1.63;1.00;;;;;;;11.71;48.16;100566.03;5004666;28;20045;-85
2022/02/04 17:27:00;;;;;;;1.38;1.10;;;;;;;11.65;48.19;100554.75;5017004;28;20050;-85
2022/02/04 17:29:30;;;;;;;1.30;1.00;;;;;;;11.60;48.25;100587.75;5018351;28;20050;-85
2022/02/04 17:31:58;;;;;;;1.70;1.33;;;;;;;11.53;48.32;100589.16;5018824;28;20045;-85
2022/02/04 17:34:26;;;;;;;1.10;0.90;;;;;;;11.47;48.24;100597.78;5028382;28;20057;-85
2022/02/04 17:36:54;;;;;;;2.33;1.25;;;;;;;11.42;48.14;100606.31;5008873;28;20141;-85
2022/02/04 17:39:24;;;;;;;2.00;1.38;;;;;;;11.40;48.52;100621.84;5004755;28;20663;-85
2022/02/04 17:41:55;;;;;;;2.60;1.20;;;;;;;11.37;48.57;100627.50;4994133;28;20061;-85
2022/02/04 17:44:25;;;;;;;2.53;1.20;;;;;;;11.32;48.71;100632.44;5008647;28;20116;-85
2022/02/04 17:46:54;;;;;;;2.08;1.30;;;;;;;11.29;49.10;100645.34;5014705;28;20836;-85
2022/02/04 17:49:29;;;;;;;1.42;1.13;;;;;;;11.31;48.62;100648.84;5001790;28;20061;-85
2022/02/04 17:52:02;;;;;;;1.52;1.20;;;;;;;11.28;48.86;100654.53;4998575;28;20069;-85
2022/02/04 17:54:37;;;;;;;2.42;1.45;;;;;;;11.26;48.77;100672.78;4996314;28;20046;-86
2022/02/04 17:57:16;;;;;;;2.00;1.45;;;;;;;11.25;48.81;100673.75;5004116;28;20485;-86
2022/02/04 18:00:05;;;;;;;2.30;1.50;;;;;;;11.24;48.72;100686.47;5009349;28;20054;-86
2022/02/04 18:07:47;;;;;;;2.20;1.38;;;;;;;11.17;48.89;100701.47;5024347;28;20057;-86
2022/02/04 18:10:14;;;;;;;2.60;1.80;;;;;;;11.19;48.92;100706.81;5008407;28;20058;-86
2022/02/04 18:12:41;;;;;;;2.53;1.58;;;;;;;11.16;48.70;100724.19;5011331;28;20123;-83
2022/02/04 18:15:09;;;;;;;2.88;1.80;;;;;;;11.15;48.67;100724.31;5012024;28;20398;-84
2022/02/04 18:17:35;;;;;;;3.55;1.92;;;;;;;11.14;49.12;100734.31;5008192;28;20046;-85
2022/02/04 18:20:10;;;;;;;3.25;2.15;;;;;;;11.15;48.91;100762.34;4998918;28;20077;-85
2022/02/04 18:22:38;;;;;;;3.03;1.80;;;;;;;11.11;48.79;100775.28;5015022;28;20088;-82
2022/02/04 18:25:05;;;;;;;3.45;2.00;;;;;;;11.11;48.78;100788.88;5017468;28;20042;-80
2022/02/04 18:27:33;;;;;;;4.72;1.63;;;;;;;11.09;48.85;100798.09;5016568;28;20103;-81
2022/02/04 18:30:06;;;;;;;2.50;1.20;;;;;;;11.07;48.54;100809.94;5029161;28;20049;-83
2022/02/04 18:32:37;;;;;;;1.58;1.10;;;;;;;11.02;48.97;100801.25;5008065;28;20486;-82